sensor_id;sensor_type;location;lat;lon;timestamp;pressure;altitude;pressure_sealevel;temperature;humidity
15932;BME280;8065;49.520;11.284;2022-09-17T00:01:15;96937.38;;;10.04;100.00
15932;BME280;8065;49.520;11.284;2022-09-17T00:03:43;96942.44;;;9.97;100.00
15932;BME280;8065;49.520;11.284;2022-09-17T00:06:11;96938.03;;;10.01;100.00
15932;BME280;8065;49.520;11.284;2022-09-17T00:08:39;96934.69;;;9.92;100.00
15932;BME280;8065;49.520;11.284;2022-09-17T00:11:08;96936.19;;;9.81;100.00
15932;BME280;8065;49.520;11.284;2022-09-17T00:13:35;96940.53;;;9.85;100.00
15932;BME280;8065;49.520;11.284;2022-09-17T00:16:02;96939.22;;;9.92;100.00
15932;BME280;8065;49.520;11.284;2022-09-17T00:18:28;96943.63;;;9.88;100.00
15932;BME280;8065;49.520;11.284;2022-09-17T00:20:56;96942.41;;;9.85;100.00
15932;BME280;8065;49.520;11.284;2022-09-17T00:23:23;96946.84;;;9.93;100.00
15932;BME280;8065;49.520;11.284;2022-09-17T00:25:50;96946.47;;;9.82;100.00
15932;BME280;8065;49.520;11.284;2022-09-17T00:28:16;96948.34;;;9.82;100.00
15932;BME280;8065;49.520;11.284;2022-09-17T00:30:44;96953.00;;;9.85;100.00
15932;BME280;8065;49.520;11.284;2022-09-17T00:33:11;96945.81;;;9.85;100.00
15932;BME280;8065;49.520;11.284;2022-09-17T00:35:39;96944.06;;;9.90;100.00
15932;BME280;8065;49.520;11.284;2022-09-17T00:38:07;96943.09;;;9.94;100.00
15932;BME280;8065;49.520;11.284;2022-09-17T00:40:33;96935.72;;;10.00;100.00
15932;BME280;8065;49.520;11.284;2022-09-17T00:43:00;96944.00;;;9.98;100.00
15932;BME280;8065;49.520;11.284;2022-09-17T00:45:27;96941.00;;;10.00;100.00
15932;BME280;8065;49.520;11.284;2022-09-17T00:47:57;96943.34;;;10.01;100.00
15932;BME280;8065;49.520;11.284;2022-09-17T00:50:28;96941.78;;;10.00;100.00
15932;BME280;8065;49.520;11.284;2022-09-17T00:52:57;96941.91;;;10.04;100.00
15932;BME280;8065;49.520;11.284;2022-09-17T00:55:29;96951.75;;;10.03;100.00
15932;BME280;8065;49.520;11.284;2022-09-17T00:57:58;96952.66;;;10.07;100.00
15932;BME280;8065;49.520;11.284;2022-09-17T01:00:27;96948.78;;;10.05;100.00
15932;BME280;8065;49.520;11.284;2022-09-17T01:02:55;96945.78;;;10.06;100.00
15932;BME280;8065;49.520;11.284;2022-09-17T01:05:28;96957.06;;;10.03;100.00
15932;BME280;8065;49.520;11.284;2022-09-17T01:08:01;96953.75;;;10.06;100.00
15932;BME280;8065;49.520;11.284;2022-09-17T01:10:44;96963.28;;;10.07;100.00
15932;BME280;8065;49.520;11.284;2022-09-17T01:13:24;96958.63;;;10.04;100.00
15932;BME280;8065;49.520;11.284;2022-09-17T01:16:03;96962.50;;;10.07;100.00
15932;BME280;8065;49.520;11.284;2022-09-17T01:18:40;96959.50;;;10.08;100.00
15932;BME280;8065;49.520;11.284;2022-09-17T01:21:36;96955.97;;;10.04;100.00
15932;BME280;8065;49.520;11.284;2022-09-17T01:24:44;96961.72;;;10.06;100.00
15932;BME280;8065;49.520;11.284;2022-09-17T01:30:19;96970.34;;;10.03;100.00
15932;BME280;8065;49.520;11.284;2022-09-17T01:32:51;96961.66;;;9.94;100.00
15932;BME280;8065;49.520;11.284;2022-09-17T01:35:27;96958.16;;;10.02;100.00
15932;BME280;8065;49.520;11.284;2022-09-17T01:38:01;96966.78;;;9.99;100.00
15932;BME280;8065;49.520;11.284;2022-09-17T01:40:36;96973.19;;;9.98;100.00
15932;BME280;8065;49.520;11.284;2022-09-17T01:43:07;96968.34;;;10.00;100.00
15932;BME280;8065;49.520;11.284;2022-09-17T01:45:40;96966.13;;;10.02;100.00
15932;BME280;8065;49.520;11.284;2022-09-17T01:48:14;96970.53;;;9.98;100.00
15932;BME280;8065;49.520;11.284;2022-09-17T01:50:45;96976.63;;;9.99;100.00
15932;BME280;8065;49.520;11.284;2022-09-17T01:53:16;96985.56;;;9.94;100.00
15932;BME280;8065;49.520;11.284;2022-09-17T01:55:45;96985.34;;;9.99;100.00
15932;BME280;8065;49.520;11.284;2022-09-17T01:58:17;96988.00;;;9.99;100.00
15932;BME280;8065;49.520;11.284;2022-09-17T02:00:50;96985.81;;;10.01;100.00
15932;BME280;8065;49.520;11.284;2022-09-17T02:03:23;96989.56;;;10.00;100.00
15932;BME280;8065;49.520;11.284;2022-09-17T02:05:57;96986.59;;;10.02;100.00
15932;BME280;8065;49.520;11.284;2022-09-17T02:08:28;96991.13;;;10.01;100.00
15932;BME280;8065;49.520;11.284;2022-09-17T02:11:01;96983.41;;;10.08;100.00
15932;BME280;8065;49.520;11.284;2022-09-17T02:13:32;96978.53;;;10.10;100.00
15932;BME280;8065;49.520;11.284;2022-09-17T02:16:03;96979.31;;;10.11;100.00
15932;BME280;8065;49.520;11.284;2022-09-17T02:18:35;96980.56;;;10.13;100.00
15932;BME280;8065;49.520;11.284;2022-09-17T02:21:07;96983.66;;;10.15;100.00
15932;BME280;8065;49.520;11.284;2022-09-17T02:23:43;96982.09;;;10.14;100.00
15932;BME280;8065;49.520;11.284;2022-09-17T02:26:15;96980.22;;;10.15;100.00
15932;BME280;8065;49.520;11.284;2022-09-17T02:28:46;96977.69;;;10.18;100.00
15932;BME280;8065;49.520;11.284;2022-09-17T02:31:14;96977.69;;;10.18;100.00
15932;BME280;8065;49.520;11.284;2022-09-17T02:33:45;96968.31;;;10.21;100.00
15932;BME280;8065;49.520;11.284;2022-09-17T02:36:13;96975.97;;;10.23;100.00
15932;BME280;8065;49.520;11.284;2022-09-17T02:38:42;96966.13;;;10.23;100.00
15932;BME280;8065;49.520;11.284;2022-09-17T02:41:15;96971.56;;;10.27;100.00
15932;BME280;8065;49.520;11.284;2022-09-17T02:43:50;96971.56;;;10.27;100.00
15932;BME280;8065;49.520;11.284;2022-09-17T02:46:36;96966.13;;;10.23;100.00
15932;BME280;8065;49.520;11.284;2022-09-17T02:49:26;96964.69;;;10.26;100.00
15932;BME280;8065;49.520;11.284;2022-09-17T02:52:05;96971.56;;;10.27;100.00
15932;BME280;8065;49.520;11.284;2022-09-17T02:54:41;96962.47;;;10.28;100.00
15932;BME280;8065;49.520;11.284;2022-09-17T02:57:18;96955.75;;;10.30;100.00
15932;BME280;8065;49.520;11.284;2022-09-17T02:59:51;96951.41;;;10.26;100.00
15932;BME280;8065;49.520;11.284;2022-09-17T03:02:25;96948.75;;;10.26;100.00
15932;BME280;8065;49.520;11.284;2022-09-17T03:04:55;96944.56;;;10.25;100.00
15932;BME280;8065;49.520;11.284;2022-09-17T03:07:22;96936.59;;;10.25;100.00
15932;BME280;8065;49.520;11.284;2022-09-17T03:09:49;96938.78;;;10.23;100.00
15932;BME280;8065;49.520;11.284;2022-09-17T03:12:15;96931.16;;;10.21;100.00
15932;BME280;8065;49.520;11.284;2022-09-17T03:14:42;96936.59;;;10.25;100.00
15932;BME280;8065;49.520;11.284;2022-09-17T03:17:09;96927.53;;;10.26;100.00
15932;BME280;8065;49.520;11.284;2022-09-17T03:19:36;96926.75;;;10.25;100.00
15932;BME280;8065;49.520;11.284;2022-09-17T03:22:04;96928.63;;;10.25;100.00
15932;BME280;8065;49.520;11.284;2022-09-17T03:24:30;96920.66;;;10.25;100.00
15932;BME280;8065;49.520;11.284;2022-09-17T03:26:57;96914.91;;;10.23;100.00
15932;BME280;8065;49.520;11.284;2022-09-17T03:29:23;96916.00;;;10.22;100.00
15932;BME280;8065;49.520;11.284;2022-09-17T03:31:50;96926.47;;;10.18;100.00
15932;BME280;8065;49.520;11.284;2022-09-17T03:34:16;96914.44;;;10.21;100.00
15932;BME280;8065;49.520;11.284;2022-09-17T03:36:42;96921.81;;;10.15;100.00
15932;BME280;8065;49.520;11.284;2022-09-17T03:39:10;96920.38;;;10.17;100.00
15932;BME280;8065;49.520;11.284;2022-09-17T03:41:37;96918.97;;;10.20;100.00
15932;BME280;8065;49.520;11.284;2022-09-17T03:44:03;96920.53;;;10.21;100.00
15932;BME280;8065;49.520;11.284;2022-09-17T03:46:31;96923.53;;;10.20;100.00
15932;BME280;8065;49.520;11.284;2022-09-17T03:48:57;96921.31;;;10.22;100.00
15932;BME280;8065;49.520;11.284;2022-09-17T03:51:24;96918.97;;;10.20;100.00
15932;BME280;8065;49.520;11.284;2022-09-17T03:53:50;96924.09;;;10.25;100.00
15932;BME280;8065;49.520;11.284;2022-09-17T03:56:18;96924.28;;;10.20;100.00
15932;BME280;8065;49.520;11.284;2022-09-17T03:58:44;96921.94;;;10.18;100.00
15932;BME280;8065;49.520;11.284;2022-09-17T04:01:11;96921.69;;;10.11;100.00
15932;BME280;8065;49.520;11.284;2022-09-17T04:03:37;96920.38;;;10.17;100.00
15932;BME280;8065;49.520;11.284;2022-09-17T04:06:04;96928.50;;;10.21;100.00
15932;BME280;8065;49.520;11.284;2022-09-17T04:08:31;96924.75;;;10.22;100.00
15932;BME280;8065;49.520;11.284;2022-09-17T04:10:58;96920.66;;;10.25;100.00
15932;BME280;8065;49.520;11.284;2022-09-17T04:13:25;96921.09;;;10.27;100.00
15932;BME280;8065;49.520;11.284;2022-09-17T04:15:52;96917.56;;;10.23;100.00
15932;BME280;8065;49.520;11.284;2022-09-17T04:18:19;96924.41;;;10.24;100.00
15932;BME280;8065;49.520;11.284;2022-09-17T04:20:45;96920.66;;;10.25;100.00
15932;BME280;8065;49.520;11.284;2022-09-17T04:23:12;96916.00;;;10.22;100.00
15932;BME280;8065;49.520;11.284;2022-09-17T04:25:38;96900.06;;;10.22;100.00
15932;BME280;8065;49.520;11.284;2022-09-17T04:28:05;96902.28;;;10.20;100.00
15932;BME280;8065;49.520;11.284;2022-09-17T04:30:33;96901.63;;;10.23;100.00
15932;BME280;8065;49.520;11.284;2022-09-17T04:32:59;96909.16;;;10.21;100.00
15932;BME280;8065;49.520;11.284;2022-09-17T04:35:26;96906.16;;;10.22;100.00
15932;BME280;8065;49.520;11.284;2022-09-17T04:37:53;96901.63;;;10.23;100.00
15932;BME280;8065;49.520;11.284;2022-09-17T04:40:20;96909.78;;;10.17;100.00
15932;BME280;8065;49.520;11.284;2022-09-17T04:42:46;96904.47;;;10.17;100.00
15932;BME280;8065;49.520;11.284;2022-09-17T04:45:13;96901.63;;;10.23;100.00
15932;BME280;8065;49.520;11.284;2022-09-17T04:47:41;96903.84;;;10.21;100.00
15932;BME280;8065;49.520;11.284;2022-09-17T04:50:08;96900.06;;;10.22;100.00
15932;BME280;8065;49.520;11.284;2022-09-17T04:52:35;96899.63;;;10.20;100.00
15932;BME280;8065;49.520;11.284;2022-09-17T04:55:02;96913.53;;;10.16;100.00
15932;BME280;8065;49.520;11.284;2022-09-17T04:57:29;96909.44;;;10.19;100.00
15932;BME280;8065;49.520;11.284;2022-09-17T04:59:55;96916.63;;;10.18;100.00
15932;BME280;8065;49.520;11.284;2022-09-17T05:02:21;96923.53;;;10.20;100.00
15932;BME280;8065;49.520;11.284;2022-09-17T05:04:49;96921.94;;;10.18;100.00
15932;BME280;8065;49.520;11.284;2022-09-17T05:07:16;96924.16;;;10.16;100.00
15932;BME280;8065;49.520;11.284;2022-09-17T05:09:42;96919.28;;;10.18;100.00
15932;BME280;8065;49.520;11.284;2022-09-17T05:12:09;96932.56;;;10.18;100.00
15932;BME280;8065;49.520;11.284;2022-09-17T05:14:35;96930.69;;;10.19;100.00
15932;BME280;8065;49.520;11.284;2022-09-17T05:17:02;96933.22;;;10.15;100.00
15932;BME280;8065;49.520;11.284;2022-09-17T05:19:28;96934.91;;;10.20;100.00
15932;BME280;8065;49.520;11.284;2022-09-17T05:21:56;96922.59;;;10.15;100.00
15932;BME280;8065;49.520;11.284;2022-09-17T05:24:22;96930.22;;;10.17;100.00
15932;BME280;8065;49.520;11.284;2022-09-17T05:26:49;96933.03;;;10.21;100.00
15932;BME280;8065;49.520;11.284;2022-09-17T05:29:15;96934.75;;;10.16;100.00
15932;BME280;8065;49.520;11.284;2022-09-17T05:31:42;96931.00;;;10.17;100.00
15932;BME280;8065;49.520;11.284;2022-09-17T05:34:08;96934.13;;;10.20;100.00
15932;BME280;8065;49.520;11.284;2022-09-17T05:36:35;96927.06;;;10.24;100.00
15932;BME280;8065;49.520;11.284;2022-09-17T05:39:03;96922.53;;;10.24;100.00
15932;BME280;8065;49.520;11.284;2022-09-17T05:41:29;96931.28;;;10.25;100.00
15932;BME280;8065;49.520;11.284;2022-09-17T05:43:55;96932.38;;;10.24;100.00
15932;BME280;8065;49.520;11.284;2022-09-17T05:46:22;96931.28;;;10.25;100.00
15932;BME280;8065;49.520;11.284;2022-09-17T05:48:48;96932.81;;;10.26;100.00
15932;BME280;8065;49.520;11.284;2022-09-17T05:51:15;96939.69;;;10.27;100.00
15932;BME280;8065;49.520;11.284;2022-09-17T05:53:43;96939.56;;;10.23;100.00
15932;BME280;8065;49.520;11.284;2022-09-17T05:56:10;96945.38;;;10.16;100.00
15932;BME280;8065;49.520;11.284;2022-09-17T05:58:37;96938.34;;;10.21;100.00
15932;BME280;8065;49.520;11.284;2022-09-17T06:01:04;96950.31;;;10.27;100.00
15932;BME280;8065;49.520;11.284;2022-09-17T06:03:30;96948.56;;;10.31;100.00
15932;BME280;8065;49.520;11.284;2022-09-17T06:05:58;96950.06;;;10.20;100.00
15932;BME280;8065;49.520;11.284;2022-09-17T06:08:26;96947.22;;;10.25;100.00
15932;BME280;8065;49.520;11.284;2022-09-17T06:10:53;96947.31;;;10.28;100.00
15932;BME280;8065;49.520;11.284;2022-09-17T06:13:21;96941.91;;;10.25;100.00
15932;BME280;8065;49.520;11.284;2022-09-17T06:15:52;96952.31;;;10.30;100.00
15932;BME280;8065;49.520;11.284;2022-09-17T06:18:19;96961.38;;;10.29;100.00
15932;BME280;8065;49.520;11.284;2022-09-17T06:20:51;96958.47;;;10.22;100.00
15932;BME280;8065;49.520;11.284;2022-09-17T06:23:19;96963.03;;;10.21;100.00
15932;BME280;8065;49.520;11.284;2022-09-17T06:25:49;96972.88;;;10.21;100.00
15932;BME280;8065;49.520;11.284;2022-09-17T06:28:16;96965.03;;;10.24;100.00
15932;BME280;8065;49.520;11.284;2022-09-17T06:30:44;96968.06;;;10.14;100.00
15932;BME280;8065;49.520;11.284;2022-09-17T06:33:10;96963.97;;;10.16;100.00
15932;BME280;8065;49.520;11.284;2022-09-17T06:35:38;96971.16;;;10.16;100.00
15932;BME280;8065;49.520;11.284;2022-09-17T06:38:04;96969.94;;;10.13;100.00
15932;BME280;8065;49.520;11.284;2022-09-17T06:40:31;96972.59;;;10.13;100.00
15932;BME280;8065;49.520;11.284;2022-09-17T06:42:59;96974.13;;;10.14;100.00
15932;BME280;8065;49.520;11.284;2022-09-17T06:45:26;96974.88;;;10.03;100.00
15932;BME280;8065;49.520;11.284;2022-09-17T06:47:53;96978.75;;;10.05;100.00
15932;BME280;8065;49.520;11.284;2022-09-17T06:50:20;96967.31;;;9.93;100.00
15932;BME280;8065;49.520;11.284;2022-09-17T06:52:47;96975.59;;;9.91;100.00
15932;BME280;8065;49.520;11.284;2022-09-17T06:55:14;96988.41;;;9.89;100.00
15932;BME280;8065;49.520;11.284;2022-09-17T06:57:41;96977.16;;;9.92;100.00
15932;BME280;8065;49.520;11.284;2022-09-17T07:00:09;96992.16;;;9.88;100.00
15932;BME280;8065;49.520;11.284;2022-09-17T07:02:35;96980.25;;;9.94;100.00
15932;BME280;8065;49.520;11.284;2022-09-17T07:05:04;96984.91;;;9.97;100.00
15932;BME280;8065;49.520;11.284;2022-09-17T07:07:30;96992.53;;;9.99;100.00
15932;BME280;8065;49.520;11.284;2022-09-17T07:09:59;96993.53;;;9.94;100.00
15932;BME280;8065;49.520;11.284;2022-09-17T07:12:25;96988.91;;;10.03;100.00
15932;BME280;8065;49.520;11.284;2022-09-17T07:14:52;96988.00;;;9.99;100.00
15932;BME280;8065;49.520;11.284;2022-09-17T07:17:18;96995.78;;;10.04;100.00
15932;BME280;8065;49.520;11.284;2022-09-17T07:19:45;96993.69;;;10.10;100.00
15932;BME280;8065;49.520;11.284;2022-09-17T07:22:13;96990.91;;;10.06;100.00
15932;BME280;8065;49.520;11.284;2022-09-17T07:24:39;96995.56;;;10.09;100.00
15932;BME280;8065;49.520;11.284;2022-09-17T07:27:06;97004.44;;;10.13;100.00
15932;BME280;8065;49.520;11.284;2022-09-17T07:29:32;97003.66;;;10.13;100.00
15932;BME280;8065;49.520;11.284;2022-09-17T07:31:59;97008.19;;;10.12;100.00
15932;BME280;8065;49.520;11.284;2022-09-17T07:34:25;97008.66;;;10.14;100.00
15932;BME280;8065;49.520;11.284;2022-09-17T07:36:53;97003.78;;;10.16;100.00
15932;BME280;8065;49.520;11.284;2022-09-17T07:39:20;97012.22;;;10.18;100.00
15932;BME280;8065;49.520;11.284;2022-09-17T07:41:47;97016.63;;;10.14;100.00
15932;BME280;8065;49.520;11.284;2022-09-17T07:44:13;97012.84;;;10.15;100.00
15932;BME280;8065;49.520;11.284;2022-09-17T07:46:40;97022.22;;;10.22;100.00
15932;BME280;8065;49.520;11.284;2022-09-17T07:49:06;97022.81;;;10.18;100.00
15932;BME280;8065;49.520;11.284;2022-09-17T07:51:33;97025.31;;;10.24;100.00
15932;BME280;8065;49.520;11.284;2022-09-17T07:53:59;97028.41;;;10.26;100.00
15932;BME280;8065;49.520;11.284;2022-09-17T07:56:28;97027.00;;;10.28;100.00
15932;BME280;8065;49.520;11.284;2022-09-17T07:58:54;97030.41;;;10.29;100.00
15932;BME280;8065;49.520;11.284;2022-09-17T08:01:21;97042.03;;;10.24;100.00
15932;BME280;8065;49.520;11.284;2022-09-17T08:03:49;97029.97;;;10.27;100.00
15932;BME280;8065;49.520;11.284;2022-09-17T08:06:17;97047.47;;;10.28;100.00
15932;BME280;8065;49.520;11.284;2022-09-17T08:08:45;97041.69;;;10.26;100.00
15932;BME280;8065;49.520;11.284;2022-09-17T08:11:13;97039.16;;;10.29;100.00
15932;BME280;8065;49.520;11.284;2022-09-17T08:13:41;97056.97;;;10.29;100.00
15932;BME280;8065;49.520;11.284;2022-09-17T08:16:10;97045.81;;;10.35;100.00
15932;BME280;8065;49.520;11.284;2022-09-17T08:18:38;97040.19;;;10.37;100.00
15932;BME280;8065;49.520;11.284;2022-09-17T08:21:06;97046.63;;;10.48;100.00
15932;BME280;8065;49.520;11.284;2022-09-17T08:23:36;97058.03;;;10.48;100.00
15932;BME280;8065;49.520;11.284;2022-09-17T08:26:03;97057.03;;;10.53;100.00
15932;BME280;8065;49.520;11.284;2022-09-17T08:28:30;97053.28;;;10.54;100.00
15932;BME280;8065;49.520;11.284;2022-09-17T08:31:01;97052.19;;;10.55;100.00
15932;BME280;8065;49.520;11.284;2022-09-17T08:33:29;97064.34;;;10.56;100.00
15932;BME280;8065;49.520;11.284;2022-09-17T08:35:56;97062.41;;;10.65;100.00
15932;BME280;8065;49.520;11.284;2022-09-17T08:38:24;97064.47;;;10.60;100.00
15932;BME280;8065;49.520;11.284;2022-09-17T08:40:58;97071.88;;;10.54;100.00
15932;BME280;8065;49.520;11.284;2022-09-17T08:43:26;97068.56;;;10.57;100.00
15932;BME280;8065;49.520;11.284;2022-09-17T08:45:54;97072.13;;;10.61;100.00
15932;BME280;8065;49.520;11.284;2022-09-17T08:48:24;97070.56;;;10.60;100.00
15932;BME280;8065;49.520;11.284;2022-09-17T08:50:54;97070.13;;;10.58;100.00
15932;BME280;8065;49.520;11.284;2022-09-17T08:53:34;97071.47;;;10.64;100.00
15932;BME280;8065;49.520;11.284;2022-09-17T08:56:09;97081.69;;;10.74;100.00
15932;BME280;8065;49.520;11.284;2022-09-17T08:58:52;97081.03;;;10.77;100.00
15932;BME280;8065;49.520;11.284;2022-09-17T09:01:26;97086.66;;;10.76;100.00
15932;BME280;8065;49.520;11.284;2022-09-17T09:07:01;97083.03;;;10.80;100.00
15932;BME280;8065;49.520;11.284;2022-09-17T09:09:35;97088.25;;;10.89;100.00
15932;BME280;8065;49.520;11.284;2022-09-17T09:12:08;97090.50;;;10.99;100.00
15932;BME280;8065;49.520;11.284;2022-09-17T09:14:39;97086.41;;;11.02;100.00
15932;BME280;8065;49.520;11.284;2022-09-17T09:17:13;97087.31;;;11.06;100.00
15932;BME280;8065;49.520;11.284;2022-09-17T09:19:44;97090.53;;;11.11;100.00
15932;BME280;8065;49.520;11.284;2022-09-17T09:22:28;97087.97;;;11.15;100.00
15932;BME280;8065;49.520;11.284;2022-09-17T09:25:02;97093.19;;;11.24;100.00
15932;BME280;8065;49.520;11.284;2022-09-17T09:27:32;97088.19;;;11.34;100.00
15932;BME280;8065;49.520;11.284;2022-09-17T09:30:03;97076.22;;;11.40;100.00
15932;BME280;8065;49.520;11.284;2022-09-17T09:32:41;97085.53;;;11.46;100.00
15932;BME280;8065;49.520;11.284;2022-09-17T09:35:16;97087.88;;;11.48;100.00
15932;BME280;8065;49.520;11.284;2022-09-17T09:37:51;97090.09;;;11.58;100.00
15932;BME280;8065;49.520;11.284;2022-09-17T09:40:27;97083.09;;;11.66;100.00
15932;BME280;8065;49.520;11.284;2022-09-17T09:42:59;97091.22;;;11.81;100.00
15932;BME280;8065;49.520;11.284;2022-09-17T09:45:36;97085.06;;;12.05;100.00
15932;BME280;8065;49.520;11.284;2022-09-17T09:48:06;97083.63;;;12.36;100.00
15932;BME280;8065;49.520;11.284;2022-09-17T09:50:43;97086.25;;;12.48;100.00
15932;BME280;8065;49.520;11.284;2022-09-17T09:53:19;97091.69;;;12.52;97.38
15932;BME280;8065;49.520;11.284;2022-09-17T09:55:57;97089.75;;;12.64;96.81
15932;BME280;8065;49.520;11.284;2022-09-17T09:58:31;97082.84;;;12.63;95.38
15932;BME280;8065;49.520;11.284;2022-09-17T10:00:59;97081.00;;;12.79;96.63
15932;BME280;8065;49.520;11.284;2022-09-17T10:03:27;97087.28;;;12.87;96.10
15932;BME280;8065;49.520;11.284;2022-09-17T10:05:57;97081.78;;;12.80;94.14
15932;BME280;8065;49.520;11.284;2022-09-17T10:08:27;97078.97;;;12.89;94.49
15932;BME280;8065;49.520;11.284;2022-09-17T10:10:57;97086.09;;;12.85;95.81
15932;BME280;8065;49.520;11.284;2022-09-17T10:13:26;97082.84;;;12.91;95.01
15932;BME280;8065;49.520;11.284;2022-09-17T10:15:52;97082.75;;;12.88;94.41
15932;BME280;8065;49.520;11.284;2022-09-17T10:18:20;97083.91;;;12.74;93.39
15932;BME280;8065;49.520;11.284;2022-09-17T10:20:53;97080.56;;;12.77;92.89
15932;BME280;8065;49.520;11.284;2022-09-17T10:23:21;97083.78;;;12.99;92.96
15932;BME280;8065;49.520;11.284;2022-09-17T10:25:49;97081.22;;;13.18;93.54
15932;BME280;8065;49.520;11.284;2022-09-17T10:28:32;97083.34;;;13.12;92.58
15932;BME280;8065;49.520;11.284;2022-09-17T10:31:02;97086.22;;;13.35;91.69
15932;BME280;8065;49.520;11.284;2022-09-17T10:33:31;97084.66;;;13.66;90.77
15932;BME280;8065;49.520;11.284;2022-09-17T10:36:01;97087.56;;;13.76;89.42
15932;BME280;8065;49.520;11.284;2022-09-17T10:38:31;97090.31;;;13.99;88.00
15932;BME280;8065;49.520;11.284;2022-09-17T10:41:14;97085.94;;;14.26;88.17
15932;BME280;8065;49.520;11.284;2022-09-17T10:43:41;97071.53;;;14.50;85.67
15932;BME280;8065;49.520;11.284;2022-09-17T10:46:10;97072.94;;;14.63;85.77
15932;BME280;8065;49.520;11.284;2022-09-17T10:48:41;97066.41;;;14.84;82.61
15932;BME280;8065;49.520;11.284;2022-09-17T10:51:09;97064.38;;;14.54;83.04
15932;BME280;8065;49.520;11.284;2022-09-17T10:54:01;97061.34;;;14.56;82.65
15932;BME280;8065;49.520;11.284;2022-09-17T10:56:33;97065.78;;;14.48;83.79
15932;BME280;8065;49.520;11.284;2022-09-17T10:59:14;97061.53;;;14.28;84.31
15932;BME280;8065;49.520;11.284;2022-09-17T11:01:56;97065.50;;;13.99;83.53
15932;BME280;8065;49.520;11.284;2022-09-17T11:04:32;97071.91;;;13.94;85.32
15932;BME280;8065;49.520;11.284;2022-09-17T11:07:19;97066.06;;;13.89;85.64
15932;BME280;8065;49.520;11.284;2022-09-17T11:09:54;97069.81;;;14.03;85.30
15932;BME280;8065;49.520;11.284;2022-09-17T11:12:36;97064.19;;;14.08;85.23
15932;BME280;8065;49.520;11.284;2022-09-17T11:15:15;97061.38;;;14.21;83.13
15932;BME280;8065;49.520;11.284;2022-09-17T11:23:48;97044.88;;;14.76;79.30
15932;BME280;8065;49.520;11.284;2022-09-17T11:26:28;97046.69;;;14.92;80.41
15932;BME280;8065;49.520;11.284;2022-09-17T11:29:04;97054.22;;;14.86;79.94
15932;BME280;8065;49.520;11.284;2022-09-17T11:31:38;97032.22;;;14.96;78.18
15932;BME280;8065;49.520;11.284;2022-09-17T11:34:24;97034.78;;;15.12;77.06
15932;BME280;8065;49.520;11.284;2022-09-17T11:36:57;97048.44;;;15.53;76.95
15932;BME280;8065;49.520;11.284;2022-09-17T11:39:32;97029.63;;;15.76;75.09
15932;BME280;8065;49.520;11.284;2022-09-17T11:42:03;97027.69;;;16.02;73.62
15932;BME280;8065;49.520;11.284;2022-09-17T11:44:36;97037.81;;;15.86;71.50
15932;BME280;8065;49.520;11.284;2022-09-17T11:47:08;97036.78;;;15.94;71.07
15932;BME280;8065;49.520;11.284;2022-09-17T11:49:41;97028.91;;;16.09;70.80
15932;BME280;8065;49.520;11.284;2022-09-17T11:52:13;97026.53;;;16.33;71.64
15932;BME280;8065;49.520;11.284;2022-09-17T11:54:48;97023.56;;;16.42;71.45
15932;BME280;8065;49.520;11.284;2022-09-17T11:57:18;97017.28;;;16.64;70.08
15932;BME280;8065;49.520;11.284;2022-09-17T11:59:50;97026.38;;;16.56;69.45
15932;BME280;8065;49.520;11.284;2022-09-17T12:02:21;97023.94;;;16.41;68.60
15932;BME280;8065;49.520;11.284;2022-09-17T12:04:55;97020.22;;;16.19;70.01
15932;BME280;8065;49.520;11.284;2022-09-17T12:07:36;97022.13;;;16.18;71.41
15932;BME280;8065;49.520;11.284;2022-09-17T12:10:18;97030.09;;;15.55;71.49
15932;BME280;8065;49.520;11.284;2022-09-17T12:12:51;97030.97;;;15.13;75.81
15932;BME280;8065;49.520;11.284;2022-09-17T12:15:21;97031.75;;;14.91;77.34
15932;BME280;8065;49.520;11.284;2022-09-17T12:17:54;97028.72;;;14.69;79.74
15932;BME280;8065;49.520;11.284;2022-09-17T12:20:26;97039.03;;;14.48;83.07
15932;BME280;8065;49.520;11.284;2022-09-17T12:22:56;97028.47;;;14.55;83.29
15932;BME280;8065;49.520;11.284;2022-09-17T12:25:24;97014.31;;;14.77;84.78
15932;BME280;8065;49.520;11.284;2022-09-17T12:27:55;97017.66;;;14.94;86.43
15932;BME280;8065;49.520;11.284;2022-09-17T12:30:30;97010.78;;;14.93;86.60
15932;BME280;8065;49.520;11.284;2022-09-17T12:33:04;97013.75;;;15.11;84.37
15932;BME280;8065;49.520;11.284;2022-09-17T12:35:55;97013.34;;;15.35;85.19
15932;BME280;8065;49.520;11.284;2022-09-17T12:38:44;97003.00;;;15.33;82.57
15932;BME280;8065;49.520;11.284;2022-09-17T12:41:16;96998.88;;;15.66;81.92
15932;BME280;8065;49.520;11.284;2022-09-17T12:43:55;96998.34;;;15.83;80.08
15932;BME280;8065;49.520;11.284;2022-09-17T12:46:36;96986.63;;;15.95;77.72
15932;BME280;8065;49.520;11.284;2022-09-17T12:49:33;96989.94;;;15.85;75.07
15932;BME280;8065;49.520;11.284;2022-09-17T12:52:06;96980.31;;;15.80;75.65
15932;BME280;8065;49.520;11.284;2022-09-17T12:54:48;96981.66;;;15.97;75.37
15932;BME280;8065;49.520;11.284;2022-09-17T12:57:27;96978.06;;;16.16;76.49
15932;BME280;8065;49.520;11.284;2022-09-17T13:00:00;96986.31;;;16.00;76.25
15932;BME280;8065;49.520;11.284;2022-09-17T13:02:34;96969.16;;;15.74;76.36
15932;BME280;8065;49.520;11.284;2022-09-17T13:05:25;96980.44;;;15.61;77.42
15932;BME280;8065;49.520;11.284;2022-09-17T13:08:11;96979.84;;;15.45;77.50
15932;BME280;8065;49.520;11.284;2022-09-17T13:11:13;96981.69;;;15.40;78.05
15932;BME280;8065;49.520;11.284;2022-09-17T13:13:48;96979.00;;;15.40;78.36
15932;BME280;8065;49.520;11.284;2022-09-17T13:16:21;96975.31;;;15.22;77.76
15932;BME280;8065;49.520;11.284;2022-09-17T13:18:55;96977.06;;;15.37;78.84
15932;BME280;8065;49.520;11.284;2022-09-17T13:21:31;96976.13;;;15.26;78.66
15932;BME280;8065;49.520;11.284;2022-09-17T13:23:59;96982.63;;;15.25;79.66